Time;durP1;ratioP1;P1;durP2;ratioP2;P2;SDS_P1;SDS_P2;PMS_P1;PMS_P2;Temp;Humidity;BMP_temperature;BMP_pressure;BME280_temperature;BME280_humidity;BME280_pressure;Samples;Min_cycle;Max_cycle;Signal;HPM_P1;HPM_P2
2024/03/19 00:03:11;;;;;;;17.25;12.27;;;8.60;99.90;;;9.34;100.00;98086.28;10455065;28;20851;-65
2024/03/19 00:08:14;;;;;;;18.65;12.27;;;8.60;99.90;;;9.32;100.00;98092.94;10439863;28;20311;-67
2024/03/19 00:13:16;;;;;;;15.45;11.63;;;8.60;99.90;;;9.29;100.00;98092.72;10435101;28;20227;-65
2024/03/19 00:18:19;;;;;;;17.85;11.73;;;8.60;99.90;;;9.30;100.00;98091.06;10441518;28;20577;-70
2024/03/19 00:23:23;;;;;;;15.75;11.88;;;8.60;99.90;;;9.22;100.00;98082.94;10438723;28;20212;-68
2024/03/19 00:28:25;;;;;;;18.23;12.80;;;8.60;99.90;;;9.24;100.00;98092.44;10439670;28;20230;-65
2024/03/19 00:33:27;;;;;;;18.42;12.75;;;8.50;99.90;;;9.28;100.00;98093.53;10456600;28;20254;-65
2024/03/19 00:38:31;;;;;;;17.88;12.45;;;8.60;99.90;;;9.29;100.00;98085.06;10439025;28;20224;-66
2024/03/19 00:43:33;;;;;;;17.55;12.77;;;8.60;99.90;;;9.37;100.00;98088.13;10436850;28;20238;-66
2024/03/19 00:48:35;;;;;;;15.95;10.75;;;8.60;99.90;;;9.33;100.00;98083.59;10454698;28;20221;-66
2024/03/19 00:53:39;;;;;;;13.82;10.63;;;8.50;99.90;;;9.28;100.00;98068.03;10456901;28;20587;-66
2024/03/19 00:58:41;;;;;;;13.90;10.82;;;8.50;99.90;;;9.19;100.00;98082.72;10435218;28;20224;-67
2024/03/19 01:03:43;;;;;;;21.90;14.68;;;8.50;99.90;;;9.14;100.00;98078.97;10454840;28;20315;-66
2024/03/19 01:08:47;;;;;;;20.25;14.20;;;8.40;99.90;;;9.07;100.00;98076.78;10451917;28;20224;-66
2024/03/19 01:13:49;;;;;;;17.83;12.75;;;8.40;99.90;;;9.13;100.00;98077.19;10434946;28;20230;-67
2024/03/19 01:18:51;;;;;;;16.27;12.20;;;8.50;99.90;;;9.15;100.00;98076.53;10452673;28;20222;-66
2024/03/19 01:23:56;;;;;;;22.27;14.73;;;8.50;99.90;;;9.20;100.00;98071.72;10451485;28;20665;-65
2024/03/19 01:28:59;;;;;;;23.17;14.52;;;8.50;99.90;;;9.15;100.00;98065.44;10438375;28;20334;-66
2024/03/19 01:34:01;;;;;;;20.52;13.88;;;8.50;99.90;;;9.11;100.00;98068.59;10433463;28;20779;-64
2024/03/19 01:39:05;;;;;;;17.23;12.13;;;8.40;99.90;;;9.10;100.00;98064.25;10436383;28;20335;-68
2024/03/19 01:44:17;;;;;;;21.70;14.23;;;8.40;99.90;;;9.08;100.00;98065.84;10449525;28;20216;-66
2024/03/19 01:49:19;;;;;;;19.08;12.77;;;8.40;99.90;;;9.07;100.00;98062.41;10431714;28;22233;-71
2024/03/19 01:54:22;;;;;;;18.00;12.23;;;8.40;99.90;;;9.08;100.00;98064.16;10447289;28;20224;-67
2024/03/19 01:59:25;;;;;;;14.05;10.43;;;8.40;99.90;;;8.83;100.00;98069.28;10439324;28;20626;-66
2024/03/19 02:04:27;;;;;;;16.02;10.93;;;8.20;99.90;;;8.85;100.00;98075.38;10434750;28;20250;-66
2024/03/19 02:09:30;;;;;;;16.40;12.32;;;8.20;99.90;;;8.86;100.00;98071.16;10450946;28;20311;-66
2024/03/19 02:14:32;;;;;;;15.10;11.50;;;8.30;99.90;;;8.93;100.00;98069.13;10433217;28;20269;-66
2024/03/19 02:19:35;;;;;;;16.90;12.15;;;8.30;99.90;;;8.92;100.00;98077.53;10435558;28;20238;-66
2024/03/19 02:24:40;;;;;;;15.50;11.45;;;8.20;99.90;;;8.95;100.00;98062.44;10434487;28;20228;-67
2024/03/19 02:29:45;;;;;;;17.33;11.98;;;8.30;99.90;;;9.09;100.00;98065.03;10435480;28;20901;-66
2024/03/19 02:34:47;;;;;;;18.35;12.00;;;8.30;99.90;;;8.89;100.00;98054.41;10434065;28;20334;-66
2024/03/19 02:39:50;;;;;;;16.90;12.85;;;8.20;99.90;;;8.79;100.00;98047.81;10433743;28;20224;-67
2024/03/19 02:44:52;;;;;;;14.70;12.00;;;8.10;99.90;;;8.71;100.00;98048.09;10433242;28;20885;-66
2024/03/19 02:49:55;;;;;;;18.50;13.38;;;8.10;99.90;;;8.53;100.00;98046.06;10435245;28;20232;-66
2024/03/19 02:54:58;;;;;;;18.33;14.23;;;8.00;99.90;;;8.57;100.00;98037.84;10457370;28;20421;-67
2024/03/19 03:00:01;;;;;;;17.20;13.77;;;7.90;99.90;;;8.53;100.00;98051.16;10441708;28;20310;-67
2024/03/19 03:05:03;;;;;;;19.93;14.17;;;8.00;99.90;;;8.57;100.00;98045.47;10442120;28;20228;-67
2024/03/19 03:10:08;;;;;;;21.25;15.38;;;8.00;99.90;;;8.58;100.00;98051.47;10442354;28;20228;-66
2024/03/19 03:15:10;;;;;;;20.90;15.40;;;7.90;99.90;;;8.59;100.00;98052.38;10441616;28;20238;-66
2024/03/19 03:20:12;;;;;;;23.83;16.98;;;8.00;99.90;;;8.57;100.00;98062.44;10453004;28;20227;-67
2024/03/19 03:25:16;;;;;;;26.87;18.47;;;7.90;99.90;;;8.54;100.00;98062.22;10459099;28;20331;-65
2024/03/19 03:30:18;;;;;;;20.83;16.73;;;7.90;99.90;;;8.64;100.00;98068.81;10439878;28;20311;-66
2024/03/19 03:35:21;;;;;;;23.43;16.83;;;8.00;99.90;;;8.80;100.00;98064.00;10441101;28;20748;-66
2024/03/19 03:40:27;;;;;;;21.83;15.83;;;8.10;99.90;;;8.76;100.00;98060.34;10451361;28;20778;-66
2024/03/19 03:45:29;;;;;;;25.40;15.38;;;8.00;99.90;;;8.73;100.00;98066.91;10439485;28;20288;-66
2024/03/19 03:50:31;;;;;;;25.08;16.40;;;8.00;99.90;;;8.53;100.00;98069.00;10454318;28;20805;-65
2024/03/19 03:55:34;;;;;;;29.00;15.93;;;7.90;99.90;;;8.49;100.00;98074.66;10451002;28;20241;-66
2024/03/19 04:00:38;;;;;;;22.10;16.23;;;7.80;99.90;;;8.50;100.00;98081.53;10440144;28;20819;-67
2024/03/19 04:05:40;;;;;;;23.47;16.97;;;7.90;99.90;;;8.46;100.00;98088.84;10452753;28;20871;-68
2024/03/19 04:10:44;;;;;;;22.07;15.67;;;7.80;99.90;;;8.45;100.00;98089.63;10438307;28;20430;-66
2024/03/19 04:15:49;;;;;;;38.97;17.37;;;7.80;99.90;;;8.46;100.00;98089.72;10453259;28;20672;-67
2024/03/19 04:20:51;;;;;;;25.67;15.65;;;7.80;99.90;;;8.48;100.00;98090.72;10438782;28;20235;-66
2024/03/19 04:25:55;;;;;;;25.77;17.37;;;7.80;99.90;;;8.50;100.00;98091.72;10438908;28;20323;-69
2024/03/19 04:30:57;;;;;;;39.17;18.05;;;7.80;99.90;;;8.49;100.00;98089.06;10438935;28;20581;-66
2024/03/19 04:35:59;;;;;;;41.60;17.30;;;7.80;99.90;;;8.48;100.00;98090.72;10455116;28;20710;-67
2024/03/19 04:41:03;;;;;;;48.00;18.15;;;7.70;99.90;;;8.41;100.00;98085.97;10425061;28;20234;-68
2024/03/19 04:46:05;;;;;;;29.13;18.33;;;7.80;99.90;;;8.46;100.00;98092.25;10437034;28;20228;-66
2024/03/19 04:51:08;;;;;;;87.23;21.83;;;7.90;99.90;;;8.35;100.00;98095.69;10431238;28;20869;-70
2024/03/19 04:56:12;;;;;;;41.20;18.83;;;7.80;99.90;;;8.44;100.00;98091.31;10424340;28;20576;-66
2024/03/19 05:01:16;;;;;;;40.53;19.20;;;7.80;99.90;;;8.43;100.00;98086.09;10431697;28;20225;-66
2024/03/19 05:06:18;;;;;;;38.17;20.80;;;7.80;99.90;;;8.37;100.00;98080.53;10428004;28;20750;-67
2024/03/19 05:11:22;;;;;;;35.72;21.52;;;7.80;99.90;;;8.42;100.00;98082.66;10445212;28;20315;-70
2024/03/19 05:16:24;;;;;;;40.70;22.70;;;7.80;99.90;;;8.38;100.00;98080.63;10424002;28;20224;-69
2024/03/19 05:21:26;;;;;;;42.90;23.30;;;7.80;99.90;;;8.50;100.00;98081.53;10433356;28;20331;-65
2024/03/19 05:26:30;;;;;;;32.57;21.70;;;7.80;99.90;;;8.40;100.00;98091.84;10441238;28;20312;-65
2024/03/19 05:31:32;;;;;;;47.53;23.10;;;7.80;99.90;;;8.46;100.00;98084.63;10437438;28;20638;-66
2024/03/19 05:36:34;;;;;;;69.53;24.50;;;7.90;99.90;;;8.57;100.00;98091.34;10449026;28;20339;-65
2024/03/19 05:41:38;;;;;;;51.83;22.77;;;8.00;99.90;;;8.52;100.00;98085.03;10457312;22;20267;-66
2024/03/19 05:46:40;;;;;;;50.72;23.02;;;7.90;99.90;;;8.55;100.00;98097.09;10403926;28;20321;-67
2024/03/19 05:51:42;;;;;;;36.55;21.88;;;7.90;99.90;;;8.54;100.00;98096.22;10385443;28;20643;-67
2024/03/19 05:56:46;;;;;;;51.20;22.70;;;7.90;99.90;;;8.63;100.00;98100.19;10364605;28;20260;-67
2024/03/19 06:01:48;;;;;;;39.43;20.30;;;7.90;99.90;;;8.64;100.00;98099.41;10365803;28;20261;-67
2024/03/19 06:06:50;;;;;;;31.97;20.43;;;7.90;99.90;;;8.49;100.00;98100.13;10361902;28;20276;-66
2024/03/19 06:11:54;;;;;;;48.53;20.00;;;7.70;99.90;;;8.37;100.00;98100.91;10379415;28;20555;-67
2024/03/19 06:16:56;;;;;;;66.53;22.20;;;7.60;99.90;;;8.38;100.00;98100.13;10382391;28;20284;-68
2024/03/19 06:21:58;;;;;;;32.67;18.40;;;7.70;99.90;;;8.27;100.00;98094.28;10392321;28;20268;-66
2024/03/19 06:27:02;;;;;;;26.67;18.80;;;7.60;99.90;;;8.32;100.00;98090.41;10420940;28;20244;-66
2024/03/19 06:32:05;;;;;;;42.83;20.43;;;7.70;99.90;;;8.31;100.00;98093.72;10417042;28;20686;-66
2024/03/19 06:37:07;;;;;;;20.47;17.67;;;7.70;99.90;;;8.61;100.00;98099.19;10420232;28;20734;-67
2024/03/19 06:42:11;;;;;;;61.00;19.83;;;7.80;99.90;;;8.72;100.00;98098.25;10417520;28;20268;-66
2024/03/19 06:47:13;;;;;;;24.05;18.30;;;7.90;99.90;;;8.62;100.00;98106.06;10417241;28;20259;-67
2024/03/19 06:52:16;;;;;;;21.73;17.40;;;7.90;99.90;;;8.66;100.00;98119.09;10416269;28;20256;-68
2024/03/19 06:57:19;;;;;;;25.45;16.70;;;8.00;99.90;;;8.85;100.00;98120.38;10420292;28;20302;-66
2024/03/19 07:02:21;;;;;;;28.63;16.35;;;7.90;99.90;;;8.92;100.00;98118.31;10432774;28;20274;-68
2024/03/19 07:07:24;;;;;;;21.50;16.23;;;7.90;99.90;;;8.84;100.00;98119.47;10418960;28;20255;-68
2024/03/19 07:12:28;;;;;;;20.17;15.02;;;8.00;99.90;;;9.02;100.00;98124.94;10408742;28;20251;-67
2024/03/19 07:17:31;;;;;;;24.00;14.40;;;8.10;99.90;;;9.24;100.00;98127.25;10417665;28;20282;-67
2024/03/19 07:22:34;;;;;;;26.13;16.33;;;8.30;99.90;;;9.37;100.00;98134.94;10417965;28;20256;-67
2024/03/19 07:27:40;;;;;;;19.35;17.25;;;8.30;99.90;;;9.53;100.00;98141.03;10416534;28;20294;-68
2024/03/19 07:32:43;;;;;;;20.73;16.75;;;8.50;99.90;;;9.54;100.00;98140.28;10415806;28;20244;-67
2024/03/19 07:37:45;;;;;;;22.27;15.55;;;8.60;99.90;;;9.57;100.00;98150.69;10418914;28;20318;-67
2024/03/19 07:42:50;;;;;;;20.10;15.38;;;8.60;99.90;;;9.87;100.00;98149.22;10420238;28;20675;-66
2024/03/19 07:47:52;;;;;;;16.35;14.68;;;8.90;99.90;;;10.02;100.00;98157.00;10426026;28;20275;-67
2024/03/19 07:52:54;;;;;;;17.15;15.10;;;9.10;99.90;;;10.28;100.00;98157.00;10424473;28;20325;-66
2024/03/19 07:57:58;;;;;;;15.80;14.18;;;9.30;99.90;;;10.44;100.00;98150.28;10425968;28;20323;-67
2024/03/19 08:03:00;;;;;;;14.38;12.77;;;9.40;99.90;;;10.90;100.00;98148.88;10427328;28;20714;-68
2024/03/19 08:08:02;;;;;;;14.45;13.05;;;9.80;99.90;;;11.10;100.00;98152.59;10424288;28;20260;-74
2024/03/19 08:13:06;;;;;;;14.23;12.77;;;10.10;99.90;;;11.52;100.00;98148.25;10424472;28;20311;-68
2024/03/19 08:18:08;;;;;;;13.15;11.90;;;10.40;99.90;;;11.73;100.00;98159.75;10438393;28;20319;-67
2024/03/19 08:23:13;;;;;;;13.88;12.57;;;10.70;99.90;;;12.29;100.00;98157.75;10424083;28;20271;-67
2024/03/19 08:28:17;;;;;;;14.07;12.50;;;11.30;99.90;;;12.52;100.00;98166.69;10422346;28;20750;-67
2024/03/19 08:33:19;;;;;;;12.77;11.68;;;11.70;99.90;;;12.82;100.00;98168.34;10421664;28;20331;-67
2024/03/19 08:38:21;;;;;;;13.93;12.52;;;12.00;99.90;;;13.12;100.00;98169.88;10422463;28;20656;-67
2024/03/19 08:43:25;;;;;;;12.65;11.45;;;12.50;99.90;;;13.64;96.45;98169.97;10421335;28;20245;-66
2024/03/19 08:48:27;;;;;;;12.98;11.68;;;13.00;99.90;;;14.07;95.14;98177.22;10423164;28;20264;-68
2024/03/19 08:53:29;;;;;;;11.63;10.57;;;13.30;99.90;;;14.32;93.23;98169.00;10421980;28;20252;-66
2024/03/19 08:58:33;;;;;;;11.52;10.52;;;13.60;99.90;;;14.63;91.39;98168.78;10420318;28;20768;-65
2024/03/19 09:03:35;;;;;;;9.27;8.30;;;14.00;99.90;;;14.80;87.83;98175.59;10419827;28;20267;-67
2024/03/19 09:08:37;;;;;;;9.40;8.60;;;14.00;99.90;;;14.64;87.51;98168.84;10420092;28;20728;-67
2024/03/19 09:13:41;;;;;;;8.75;8.05;;;13.90;99.90;;;15.06;87.41;98173.31;10420383;28;20260;-66
2024/03/19 09:18:44;;;;;;;8.48;7.78;;;14.40;99.90;;;15.10;89.96;98170.03;10421276;28;20255;-67
2024/03/19 09:23:46;;;;;;;8.20;7.50;;;14.30;99.90;;;15.12;88.70;98173.56;10436088;28;20248;-68
2024/03/19 09:28:50;;;;;;;8.48;7.68;;;14.30;99.90;;;15.25;88.44;98165.59;10419736;28;20663;-67
2024/03/19 09:33:52;;;;;;;7.32;6.72;;;14.60;99.90;;;15.62;86.25;98161.09;10420680;28;20594;-67
2024/03/19 09:38:54;;;;;;;7.65;7.05;;;14.90;99.90;;;16.01;82.77;98161.03;10422645;28;20312;-67
2024/03/19 09:43:58;;;;;;;7.45;6.85;;;15.30;99.90;;;16.14;80.88;98158.13;10418514;28;20705;-67
2024/03/19 09:49:01;;;;;;;7.72;7.05;;;15.40;99.90;;;16.35;78.79;98173.56;10421018;28;20304;-66
2024/03/19 09:54:04;;;;;;;7.47;6.88;;;15.50;99.90;;;15.81;81.72;98173.09;10418676;28;20732;-66
2024/03/19 09:59:16;;;;;;;7.65;6.95;;;15.10;99.90;;;15.58;83.06;98170.41;10418420;28;20679;-67
2024/03/19 10:04:19;;;;;;;7.50;6.82;;;14.80;99.90;;;15.89;83.35;98161.41;10414219;28;20311;-67
2024/03/19 10:09:21;;;;;;;6.95;6.35;;;15.10;99.90;;;16.06;80.67;98154.38;10416987;28;20267;-66
2024/03/19 10:14:24;;;;;;;6.68;6.07;;;15.20;99.90;;;16.40;81.00;98149.72;10416123;28;20317;-66
2024/03/19 10:19:27;;;;;;;5.63;5.18;;;15.60;99.90;;;16.84;76.66;98147.97;10422125;28;20662;-68
2024/03/19 10:24:30;;;;;;;6.25;5.65;;;15.80;99.90;;;16.77;73.82;98153.72;10433240;28;20255;-67
2024/03/19 10:29:35;;;;;;;5.57;5.18;;;15.80;99.90;;;16.57;76.18;98149.50;10433868;28;20773;-66
2024/03/19 10:34:38;;;;;;;5.80;5.30;;;15.60;99.90;;;16.62;75.24;98148.81;10413581;28;20260;-67
2024/03/19 10:39:43;;;;;;;5.22;4.82;;;15.70;99.90;;;16.60;76.25;98147.91;10420722;28;20249;-66
2024/03/19 10:44:46;;;;;;;5.35;4.85;;;15.70;99.90;;;16.38;75.08;98143.59;10420984;28;20805;-67
2024/03/19 10:49:49;;;;;;;4.50;4.10;;;15.50;99.90;;;16.58;73.87;98146.94;10417754;28;20244;-67
2024/03/19 10:54:53;;;;;;;4.55;4.22;;;15.50;99.90;;;16.49;72.92;98140.56;10429470;28;20248;-67
2024/03/19 10:59:57;;;;;;;4.65;4.25;;;15.50;99.90;;;16.61;69.96;98136.75;10418015;28;20266;-68
2024/03/19 11:04:59;;;;;;;4.57;4.18;;;15.70;99.90;;;17.05;70.77;98123.72;10417638;28;20252;-67
2024/03/19 11:10:02;;;;;;;4.18;3.88;;;16.20;99.90;;;17.56;68.81;98129.84;10422463;28;20252;-66
2024/03/19 11:15:15;;;;;;;3.72;3.35;;;16.70;99.90;;;17.52;65.10;98133.16;10439111;28;20260;-67
2024/03/19 11:20:17;;;;;;;3.78;3.47;;;16.60;99.90;;;17.47;65.66;98124.34;10427126;28;20727;-67
2024/03/19 11:25:21;;;;;;;3.30;3.00;;;16.50;99.90;;;17.30;66.31;98130.66;10426464;28;20699;-66
2024/03/19 11:30:25;;;;;;;3.47;2.80;;;16.30;99.90;;;17.25;64.85;98133.06;10426946;28;20248;-66
2024/03/19 11:35:27;;;;;;;3.15;2.85;;;16.30;99.90;;;16.75;64.74;98139.84;10428062;28;20737;-66
2024/03/19 11:40:31;;;;;;;2.92;2.70;;;16.00;99.90;;;17.06;67.01;98136.72;10426425;28;20257;-66
2024/03/19 11:45:35;;;;;;;3.17;2.80;;;16.00;99.90;;;17.15;64.13;98131.00;10480873;22;20240;-65
2024/03/19 11:50:37;;;;;;;3.15;2.88;;;16.10;99.90;;;16.59;67.24;98138.38;10494380;28;20266;-67
2024/03/19 11:55:40;;;;;;;3.30;2.92;;;15.70;99.90;;;16.61;64.86;98130.69;10494423;28;20311;-65
2024/03/19 12:00:45;;;;;;;2.70;2.50;;;15.70;99.90;;;16.77;65.76;98132.16;10494765;28;20262;-65
2024/03/19 12:05:50;;;;;;;2.95;2.47;;;15.90;99.90;;;16.69;64.04;98126.72;10479690;28;20263;-67
2024/03/19 12:11:02;;;;;;;2.50;2.30;;;15.90;99.90;;;16.91;63.88;98119.78;10476925;28;20297;-66
2024/03/19 12:16:06;;;;;;;2.05;1.95;;;15.80;99.90;;;16.74;63.98;98117.44;10477070;28;20664;-66
2024/03/19 12:21:15;;;;;;;2.13;2.03;;;15.80;99.90;;;16.76;60.88;98120.06;10493730;28;20235;-66
2024/03/19 12:26:18;;;;;;;2.00;1.90;;;15.90;99.90;;;16.81;60.36;98111.69;10491382;28;20243;-65
2024/03/19 12:31:24;;;;;;;2.20;2.10;;;15.90;99.90;;;16.86;62.93;98111.88;10493261;28;20715;-65
2024/03/19 12:36:26;;;;;;;2.53;2.40;;;16.00;99.90;;;16.80;59.13;98114.25;10475835;28;20253;-69
2024/03/19 12:41:28;;;;;;;2.65;2.45;;;16.10;99.90;;;16.98;60.93;98108.84;10476422;28;20244;-65
2024/03/19 12:46:31;;;;;;;2.60;2.40;;;16.10;99.90;;;17.21;57.44;98104.50;10476162;28;20726;-65
2024/03/19 12:51:34;;;;;;;2.60;2.38;;;16.30;99.90;;;17.31;59.75;98093.63;10475350;28;20760;-65
2024/03/19 12:56:36;;;;;;;2.40;2.20;;;16.50;99.90;;;17.55;58.87;98091.03;10473609;28;20327;-65
2024/03/19 13:01:40;;;;;;;2.50;2.10;;;16.80;99.90;;;17.93;56.75;98088.84;10476666;28;20252;-66
2024/03/19 13:06:43;;;;;;;2.00;1.80;;;16.90;99.90;;;17.72;54.68;98087.28;10484558;28;20672;-65
2024/03/19 13:11:45;;;;;;;3.17;1.80;;;16.90;99.90;;;18.18;53.20;98095.66;10477583;28;20250;-66
2024/03/19 13:16:48;;;;;;;1.85;1.60;;;17.30;99.90;;;18.27;52.02;98093.34;10475659;28;20265;-66
2024/03/19 13:21:51;;;;;;;1.40;1.30;;;17.50;99.90;;;18.31;51.41;98090.00;10473750;28;20259;-66
2024/03/19 13:26:53;;;;;;;2.22;1.85;;;17.40;99.90;;;18.27;50.92;98092.47;10472994;28;20247;-66
2024/03/19 13:31:56;;;;;;;1.98;1.60;;;17.40;99.90;;;18.22;51.05;98088.03;10491055;28;20251;-67
2024/03/19 13:36:58;;;;;;;2.13;1.75;;;17.20;99.90;;;18.01;51.88;98092.53;10474410;28;20256;-67
2024/03/19 13:42:01;;;;;;;1.70;1.60;;;17.10;99.90;;;18.15;50.48;98092.97;10473335;28;20251;-66
2024/03/19 13:47:05;;;;;;;2.05;1.85;;;17.20;99.90;;;17.97;51.71;98090.66;10474495;28;20263;-67
2024/03/19 13:52:07;;;;;;;1.88;1.70;;;17.10;99.90;;;17.89;55.35;98098.22;10473426;28;20687;-67
2024/03/19 13:57:10;;;;;;;2.25;2.00;;;17.30;99.90;;;17.68;55.88;98098.34;10474894;28;20258;-65
2024/03/19 14:02:14;;;;;;;3.08;2.58;;;17.00;99.90;;;17.61;55.46;98098.09;10471748;28;20332;-67
2024/03/19 14:07:16;;;;;;;2.20;2.00;;;16.80;99.90;;;17.68;55.20;98098.34;10473464;28;20248;-66
2024/03/19 14:12:22;;;;;;;4.90;4.50;;;16.90;99.90;;;17.60;55.56;98094.66;10489417;28;20263;-67
2024/03/19 14:17:26;;;;;;;2.00;1.80;;;16.80;99.90;;;17.45;56.69;98095.00;10472985;28;20320;-67
2024/03/19 14:22:28;;;;;;;2.10;2.00;;;16.70;99.90;;;17.23;58.40;98101.16;10471933;28;20252;-67
2024/03/19 14:27:30;;;;;;;2.30;1.90;;;16.60;99.90;;;16.96;61.05;98097.59;10470012;28;20271;-68
2024/03/19 14:32:34;;;;;;;3.15;2.40;;;16.30;99.90;;;16.69;60.69;98100.03;10471882;28;20316;-67
2024/03/19 14:37:36;;;;;;;2.10;1.90;;;16.20;99.90;;;16.65;61.93;98104.16;10489920;28;20694;-67
2024/03/19 14:42:39;;;;;;;1.88;1.77;;;16.00;99.90;;;16.43;63.39;98099.94;10470201;28;20261;-68
2024/03/19 14:47:42;;;;;;;2.20;2.10;;;15.90;99.90;;;16.42;63.79;98103.31;10470206;28;20301;-67
2024/03/19 14:52:44;;;;;;;2.58;2.22;;;15.90;99.90;;;16.43;64.30;98099.94;10471548;28;20457;-68
2024/03/19 14:57:46;;;;;;;2.42;2.20;;;15.80;99.90;;;16.33;64.04;98105.56;10472704;28;20661;-66
2024/03/19 15:02:50;;;;;;;2.38;2.17;;;15.70;99.90;;;16.35;64.71;98106.50;10469453;28;20633;-67
2024/03/19 15:07:52;;;;;;;2.30;2.20;;;15.70;99.90;;;16.39;65.76;98103.19;10471873;28;20251;-68
2024/03/19 15:12:54;;;;;;;2.60;2.00;;;15.70;99.90;;;16.34;63.95;98105.63;10485181;28;20251;-68
2024/03/19 15:17:58;;;;;;;2.45;2.25;;;15.70;99.90;;;16.44;64.15;98107.72;10468622;28;20822;-68
2024/03/19 15:23:00;;;;;;;3.90;2.47;;;15.80;99.90;;;16.38;63.48;98099.75;10466992;28;20236;-68
2024/03/19 15:28:05;;;;;;;3.03;2.70;;;15.70;99.90;;;16.46;63.54;98100.03;10463014;28;20307;-67
2024/03/19 15:33:09;;;;;;;2.38;2.28;;;15.70;99.90;;;16.60;62.83;98098.88;10460518;28;20315;-67
2024/03/19 15:38:14;;;;;;;2.80;2.60;;;15.80;99.90;;;16.29;63.53;98081.34;10464930;28;20319;-68
2024/03/19 15:43:16;;;;;;;2.50;2.40;;;15.60;99.90;;;16.59;62.26;98089.34;10482537;28;20338;-66
2024/03/19 15:48:19;;;;;;;2.63;2.50;;;15.90;99.90;;;16.69;60.98;98089.69;10464556;28;20315;-68
2024/03/19 15:53:22;;;;;;;3.00;2.00;;;15.90;99.90;;;16.35;61.02;98091.03;10455284;28;20331;-68
2024/03/19 15:58:24;;;;;;;1.90;1.80;;;15.70;99.90;;;16.37;60.56;98094.53;10449482;28;20587;-66
2024/03/19 16:03:28;;;;;;;2.08;1.95;;;15.60;99.90;;;16.15;61.20;98098.00;10470741;28;20240;-68
2024/03/19 16:08:30;;;;;;;2.58;2.35;;;15.40;99.90;;;16.03;61.14;98092.38;10457177;28;20647;-67
2024/03/19 16:13:32;;;;;;;1.77;1.65;;;15.30;99.90;;;16.30;59.59;98097.69;10455730;28;20344;-64
2024/03/19 16:18:35;;;;;;;2.30;2.10;;;15.60;99.90;;;15.98;60.54;98094.75;10475224;28;20319;-67
2024/03/19 16:23:38;;;;;;;2.53;2.30;;;15.40;99.90;;;15.82;62.22;98097.53;10454543;28;20335;-66
2024/03/19 16:28:40;;;;;;;2.90;2.60;;;15.20;99.90;;;15.80;62.07;98101.75;10456665;28;20315;-66
2024/03/19 16:33:43;;;;;;;2.30;2.10;;;15.20;99.90;;;15.69;62.32;98109.03;10483833;28;20991;-66
2024/03/19 16:38:47;;;;;;;2.40;2.20;;;15.00;99.90;;;16.09;61.77;98105.50;10453182;28;20324;-66
2024/03/19 16:43:49;;;;;;;3.50;2.13;;;15.30;99.90;;;15.81;63.61;98111.25;10458498;28;20790;-66
2024/03/19 16:48:52;;;;;;;2.90;2.70;;;15.00;99.90;;;15.68;63.82;98115.91;10461687;28;20327;-66
2024/03/19 16:53:54;;;;;;;2.50;2.30;;;14.90;99.90;;;15.63;63.92;98112.22;10451077;28;20232;-66
2024/03/19 16:58:57;;;;;;;2.85;2.60;;;14.80;99.90;;;15.44;65.94;98117.41;10475838;28;20303;-65
2024/03/19 17:04:00;;;;;;;3.60;3.30;;;14.60;99.90;;;15.31;65.81;98114.34;10470276;28;20375;-66
2024/03/19 17:09:02;;;;;;;3.53;3.33;;;14.50;99.90;;;15.09;68.05;98124.53;10480616;28;20374;-66
2024/03/19 17:14:06;;;;;;;3.22;2.78;;;14.30;99.90;;;14.90;70.52;98130.53;10460407;28;20279;-67
2024/03/19 17:19:10;;;;;;;3.22;3.03;;;14.10;99.90;;;14.70;72.04;98129.66;10460045;28;20316;-66
2024/03/19 17:24:15;;;;;;;4.18;3.88;;;13.90;99.90;;;14.40;74.32;98132.56;10448073;28;20349;-66
2024/03/19 17:29:17;;;;;;;3.90;3.42;;;13.60;99.90;;;14.17;75.40;98133.19;10452760;28;20791;-66
2024/03/19 17:34:21;;;;;;;5.22;4.40;;;13.30;99.90;;;13.90;77.79;98148.13;10447540;28;20319;-67
2024/03/19 17:39:23;;;;;;;4.43;4.13;;;13.00;99.90;;;13.73;79.65;98150.78;10466550;28;20239;-68
2024/03/19 17:44:26;;;;;;;3.78;3.45;;;12.90;99.90;;;13.57;81.49;98162.78;10457829;28;20311;-67
2024/03/19 17:49:30;;;;;;;2.53;2.20;;;12.80;99.90;;;13.35;82.74;98159.13;10461668;28;20311;-67
2024/03/19 17:54:32;;;;;;;2.97;2.78;;;12.60;99.90;;;13.14;84.44;98156.31;10462969;22;20316;-64
2024/03/19 17:59:35;;;;;;;2.75;2.55;;;12.40;99.90;;;12.93;84.41;98152.63;10435921;28;20236;-63
2024/03/19 18:04:38;;;;;;;3.00;2.80;;;12.20;99.90;;;12.76;87.10;98156.84;10428914;28;20795;-64
2024/03/19 18:09:40;;;;;;;2.83;2.63;;;12.00;99.90;;;12.56;89.06;98163.47;10430797;28;20315;-63
2024/03/19 18:14:42;;;;;;;3.00;2.72;;;11.90;99.90;;;12.49;90.54;98164.84;10424270;28;20310;-64
2024/03/19 18:19:46;;;;;;;3.35;3.15;;;11.80;99.90;;;12.42;90.62;98170.44;10424417;28;20248;-63
2024/03/19 18:24:48;;;;;;;4.68;4.47;;;11.70;99.90;;;12.17;91.34;98174.19;10433007;28;20669;-64
2024/03/19 18:29:50;;;;;;;8.45;7.60;;;11.40;99.90;;;11.95;92.42;98181.47;10442964;28;20230;-63
2024/03/19 18:34:54;;;;;;;11.02;7.72;;;11.20;99.90;;;11.81;92.74;98185.78;10428690;28;20652;-63
2024/03/19 18:39:56;;;;;;;5.05;4.55;;;11.10;99.90;;;11.70;93.66;98185.19;10431973;28;21052;-64
2024/03/19 18:44:59;;;;;;;4.13;3.83;;;10.90;99.90;;;11.59;94.24;98186.22;10437292;28;20232;-63
2024/03/19 18:50:03;;;;;;;3.88;3.30;;;10.90;99.90;;;11.52;94.64;98188.34;10427014;28;20229;-63
2024/03/19 18:55:07;;;;;;;3.75;3.45;;;10.80;99.90;;;11.44;95.18;98196.44;10431043;28;20230;-64
2024/03/19 19:00:11;;;;;;;4.80;4.40;;;10.70;99.90;;;11.32;95.68;98199.94;10448734;28;20239;-63
2024/03/19 19:05:14;;;;;;;3.67;3.42;;;10.60;99.90;;;11.23;96.30;98203.72;10425312;28;20239;-64
2024/03/19 19:10:17;;;;;;;3.72;3.03;;;10.40;99.90;;;11.05;96.87;98197.53;10432926;28;20804;-64
2024/03/19 19:15:19;;;;;;;3.70;3.40;;;10.20;99.90;;;10.91;96.91;98203.47;10433286;28;20220;-64
2024/03/19 19:20:23;;;;;;;3.83;3.53;;;10.10;99.90;;;10.88;97.17;98209.28;10431064;28;20229;-64
2024/03/19 19:25:25;;;;;;;4.30;4.00;;;10.10;99.90;;;10.81;97.58;98205.44;10443990;28;20233;-63
2024/03/19 19:30:27;;;;;;;4.70;4.30;;;10.10;99.90;;;10.64;98.84;98211.19;10438768;28;20316;-64
2024/03/19 19:35:31;;;;;;;4.53;4.22;;;9.80;99.90;;;10.60;99.23;98209.22;10441395;28;20695;-64
2024/03/19 19:40:33;;;;;;;4.47;4.10;;;9.80;99.90;;;10.50;99.36;98212.00;10449296;28;20312;-64
2024/03/19 19:45:35;;;;;;;5.00;4.40;;;9.70;99.90;;;10.38;100.00;98220.66;10448084;28;20344;-64
2024/03/19 19:50:39;;;;;;;4.60;4.07;;;9.60;99.90;;;10.31;100.00;98215.94;10444218;28;20664;-64
2024/03/19 19:55:41;;;;;;;5.55;4.90;;;9.60;99.90;;;10.22;100.00;98225.56;10450622;28;20402;-65
2024/03/19 20:00:45;;;;;;;5.07;4.68;;;9.50;99.90;;;10.13;100.00;98232.63;10437279;28;20626;-65
2024/03/19 20:05:49;;;;;;;5.20;4.80;;;9.30;99.90;;;10.08;100.00;98234.00;10441677;28;20399;-65
2024/03/19 20:10:51;;;;;;;5.20;4.78;;;9.30;99.90;;;10.00;100.00;98237.72;10433433;28;20319;-64
2024/03/19 20:15:53;;;;;;;4.25;3.85;;;9.20;99.90;;;9.84;100.00;98241.84;10449453;28;20637;-64
2024/03/19 20:20:57;;;;;;;5.07;4.57;;;9.00;99.90;;;9.87;100.00;98241.13;10441953;28;20233;-67
2024/03/19 20:25:59;;;;;;;5.80;5.30;;;9.10;99.90;;;9.75;100.00;98236.09;10437386;28;20227;-64
2024/03/19 20:31:01;;;;;;;5.88;5.38;;;9.00;99.90;;;9.63;100.00;98245.50;10443015;28;20227;-66
2024/03/19 20:36:06;;;;;;;5.85;5.32;;;8.80;99.90;;;9.48;100.00;98253.91;10437820;28;20954;-66
2024/03/19 20:41:09;;;;;;;6.82;6.22;;;8.70;99.90;;;9.42;100.00;98253.50;10439989;28;20232;-66
2024/03/19 20:46:11;;;;;;;5.93;5.45;;;8.60;99.90;;;9.34;100.00;98257.19;10436171;28;20229;-64
2024/03/19 20:51:15;;;;;;;6.18;5.63;;;8.50;99.90;;;9.26;100.00;98250.66;10433873;28;20225;-64
2024/03/19 20:56:17;;;;;;;6.60;6.10;;;8.40;99.90;;;9.16;100.00;98241.50;10447976;28;20221;-63